Time;durP1;ratioP1;P1;durP2;ratioP2;P2;SDS_P1;SDS_P2;PMS_P1;PMS_P2;Temp;Humidity;BMP_temperature;BMP_pressure;BME280_temperature;BME280_humidity;BME280_pressure;Samples;Min_cycle;Max_cycle;Signal;HPM_P1;HPM_P2
2024/04/10 00:01:49;;;;;;;4.27;2.33;;;10.90;1.00;;;;;;5507413;26;20237;-78
2024/04/10 00:04:18;;;;;;;3.97;2.30;;;10.90;1.00;;;;;;5505835;26;20823;-78
2024/04/10 00:06:44;;;;;;;4.00;2.30;;;10.90;1.00;;;;;;5484928;26;20238;-79
2024/04/10 00:09:12;;;;;;;2.53;1.93;;;10.90;1.00;;;;;;5502110;26;20297;-78
2024/04/10 00:11:38;;;;;;;4.53;2.37;;;10.90;99.90;;;;;;5498282;25;20765;-78
2024/04/10 00:14:07;;;;;;;3.30;2.20;;;10.90;99.90;;;;;;5494531;26;20241;-78
2024/04/10 00:16:35;;;;;;;4.70;2.37;;;10.90;99.90;;;;;;5491190;26;20284;-78
2024/04/10 00:19:04;;;;;;;4.90;2.77;;;10.90;99.90;;;;;;5504084;26;20276;-78
2024/04/10 00:21:32;;;;;;;5.43;2.43;;;10.90;99.90;;;;;;5494930;26;20280;-77
2024/04/10 00:24:01;;;;;;;3.83;2.20;;;10.80;99.90;;;;;;5492786;26;20758;-78
2024/04/10 00:26:27;;;;;;;6.03;2.80;;;10.80;1.00;;;;;;5495397;26;20289;-77
2024/04/10 00:28:56;;;;;;;4.10;2.23;;;10.80;1.00;;;;;;5486091;26;20243;-79
2024/04/10 00:31:22;;;;;;;4.77;2.67;;;10.70;1.00;;;;;;5494742;26;20735;-78
2024/04/10 00:33:53;;;;;;;6.80;2.30;;;10.60;1.00;;;;;;5497903;26;20339;-79
2024/04/10 00:36:19;;;;;;;5.37;2.43;;;10.60;1.00;;;;;;5493470;26;20243;-79
2024/04/10 00:38:47;;;;;;;5.37;2.80;;;10.60;1.00;;;;;;5501191;26;20276;-79
2024/04/10 00:41:14;;;;;;;6.27;2.80;;;10.60;1.00;;;;;;5488012;26;20244;-79
2024/04/10 00:43:44;;;;;;;8.43;2.70;;;10.60;1.00;;;;;;5496691;26;20774;-78
2024/04/10 00:46:14;;;;;;;5.10;2.67;;;10.60;1.00;;;;;;5488069;26;20290;-78
2024/04/10 00:48:43;;;;;;;7.30;3.50;;;10.70;1.00;;;;;;5496758;26;20290;-78
2024/04/10 00:51:17;;;;;;;4.30;2.47;;;10.60;1.00;;;;;;5512532;26;20280;-79
2024/04/10 00:53:46;;;;;;;6.90;2.70;;;10.60;1.00;;;;;;5495466;26;20349;-79
2024/04/10 00:56:13;;;;;;;7.00;2.57;;;10.60;1.00;;;;;;5504930;26;20598;-79
2024/04/10 00:58:43;;;;;;;4.63;2.70;;;10.60;1.00;;;;;;5507102;25;20234;-78
2024/04/10 01:01:10;;;;;;;6.33;2.90;;;10.50;1.00;;;;;;5508418;26;20277;-78
2024/04/10 01:03:40;;;;;;;7.13;2.47;;;10.60;1.00;;;;;;5500518;25;20253;-78
2024/04/10 01:06:07;;;;;;;5.80;2.70;;;10.50;1.00;;;;;;5495595;26;20342;-77
2024/04/10 01:08:39;;;;;;;6.67;2.43;;;10.60;1.00;;;;;;5495013;26;20294;-79
2024/04/10 01:11:07;;;;;;;8.63;3.00;;;10.50;1.00;;;;;;5499572;26;20352;-79
2024/04/10 01:13:36;;;;;;;6.17;2.70;;;10.50;1.00;;;;;;5502345;25;20242;-78
2024/04/10 01:16:03;;;;;;;7.67;3.03;;;10.50;1.00;;;;;;5500709;26;20716;-78
2024/04/10 01:18:31;;;;;;;14.07;2.83;;;10.50;1.00;;;;;;5480779;26;20238;-79
2024/04/10 01:20:57;;;;;;;7.20;2.60;;;10.40;1.00;;;;;;5498433;26;20242;-80
2024/04/10 01:23:29;;;;;;;5.97;2.87;;;10.30;1.00;;;;;;5486796;26;20274;-78
2024/04/10 01:25:54;;;;;;;9.57;2.60;;;10.40;1.00;;;;;;5495155;26;20584;-78
2024/04/10 01:28:23;;;;;;;8.60;2.50;;;10.40;1.00;;;;;;5490558;26;20343;-79
2024/04/10 01:30:49;;;;;;;7.57;2.30;;;10.30;1.00;;;;;;5502894;25;20245;-79
2024/04/10 01:33:18;;;;;;;6.57;3.43;;;10.30;1.00;;;;;;5498158;26;20285;-78
2024/04/10 01:35:44;;;;;;;11.23;3.27;;;10.20;1.00;;;;;;5491066;26;20242;-78
2024/04/10 01:38:12;;;;;;;10.67;2.93;;;10.30;1.00;;;;;;5497742;26;20254;-79
2024/04/10 01:40:41;;;;;;;10.70;3.50;;;10.30;1.00;;;;;;5494870;26;20610;-78
2024/04/10 01:43:10;;;;;;;10.30;3.23;;;10.30;1.00;;;;;;5484298;26;20235;-78
2024/04/10 01:45:36;;;;;;;9.37;2.97;;;10.20;1.00;;;;;;5491275;26;20250;-79
2024/04/10 01:48:06;;;;;;;7.60;3.20;;;10.20;1.00;;;;;;5494690;26;20335;-79
2024/04/10 01:50:32;;;;;;;6.30;2.87;;;10.20;1.00;;;;;;5507958;26;20268;-79
2024/04/10 01:53:00;;;;;;;11.37;3.87;;;10.30;1.00;;;;;;5506489;25;20243;-79
2024/04/10 01:55:26;;;;;;;5.83;3.10;;;10.20;1.00;;;;;;5507588;26;20250;-77
2024/04/10 01:57:57;;;;;;;7.23;3.37;;;10.20;1.00;;;;;;5506458;26;20289;-78
2024/04/10 02:00:25;;;;;;;8.60;3.23;;;10.20;1.00;;;;;;5497061;26;20297;-78
2024/04/10 02:02:54;;;;;;;12.23;3.70;;;10.20;1.00;;;;;;5506200;25;20723;-78
2024/04/10 02:05:19;;;;;;;9.90;3.70;;;10.20;1.00;;;;;;5504831;26;20313;-77
2024/04/10 02:07:48;;;;;;;10.07;3.40;;;10.20;1.00;;;;;;5498935;26;20242;-78
2024/04/10 02:10:14;;;;;;;12.17;4.10;;;10.20;1.00;;;;;;5493215;26;20772;-78
2024/04/10 02:12:43;;;;;;;12.30;3.93;;;10.10;1.00;;;;;;5497293;25;20682;-78
2024/04/10 02:15:11;;;;;;;10.03;3.50;;;10.20;1.00;;;;;;5503859;26;20277;-78
2024/04/10 02:17:40;;;;;;;11.77;3.50;;;10.20;1.00;;;;;;5495969;26;20287;-77
2024/04/10 02:20:08;;;;;;;10.80;4.43;;;10.20;1.00;;;;;;5490174;26;20277;-78
2024/04/10 02:22:36;;;;;;;8.53;3.70;;;10.20;1.00;;;;;;5497659;26;20235;-77
2024/04/10 02:25:04;;;;;;;9.77;3.73;;;10.20;1.00;;;;;;5486757;26;20243;-78
2024/04/10 02:27:32;;;;;;;9.07;3.47;;;10.20;1.00;;;;;;5496225;26;20327;-79
2024/04/10 02:29:58;;;;;;;9.50;3.77;;;10.20;1.00;;;;;;5487620;26;20234;-78
2024/04/10 02:32:29;;;;;;;9.23;3.70;;;10.10;1.00;;;;;;5493783;26;20281;-77
2024/04/10 02:34:55;;;;;;;9.47;3.37;;;10.10;1.00;;;;;;5489042;25;20239;-79
2024/04/10 02:37:24;;;;;;;7.40;3.60;;;10.20;1.00;;;;;;5496356;26;20662;-77
2024/04/10 02:39:50;;;;;;;13.27;3.50;;;10.20;1.00;;;;;;5491956;26;20285;-78
2024/04/10 02:42:19;;;;;;;10.47;3.50;;;10.20;1.00;;;;;;5493755;26;20238;-78
2024/04/10 02:44:50;;;;;;;7.80;3.10;;;10.20;1.00;;;;;;5482542;26;20243;-78
2024/04/10 02:47:20;;;;;;;10.00;3.93;;;10.20;1.00;;;;;;5476235;26;20683;-79
2024/04/10 02:49:48;;;;;;;8.93;3.70;;;10.10;1.00;;;;;;5480551;26;20285;-78
2024/04/10 02:52:17;;;;;;;14.00;4.37;;;10.10;1.00;;;;;;5486847;26;20243;-78
2024/04/10 02:54:43;;;;;;;12.13;3.60;;;10.10;1.00;;;;;;5487569;26;20246;-79
2024/04/10 02:57:11;;;;;;;10.53;4.13;;;10.10;1.00;;;;;;5491549;25;20310;-78
2024/04/10 02:59:37;;;;;;;10.57;3.37;;;10.10;1.00;;;;;;5486928;26;20751;-77
2024/04/10 03:02:07;;;;;;;11.00;3.67;;;10.00;1.00;;;;;;5515119;26;20239;-79
2024/04/10 03:04:33;;;;;;;8.30;3.50;;;10.00;1.00;;;;;;5503497;26;20318;-80
2024/04/10 03:07:05;;;;;;;9.70;3.07;;;10.00;1.00;;;;;;5491362;25;20625;-79
2024/04/10 03:09:31;;;;;;;10.70;3.47;;;9.90;33.80;;;;;;5497095;26;20238;-79
2024/04/10 03:11:59;;;;;;;11.33;3.63;;;9.90;57.20;;;;;;5499273;25;20285;-79
2024/04/10 03:14:26;;;;;;;13.20;4.40;;;9.90;44.40;;;;;;5485262;26;20264;-79
2024/04/10 03:16:54;;;;;;;16.30;3.83;;;9.90;99.90;;;;;;5496747;25;20300;-79
2024/04/10 03:19:21;;;;;;;11.37;3.97;;;9.80;99.90;;;;;;5501919;25;20238;-79
2024/04/10 03:21:49;;;;;;;10.97;3.83;;;9.80;99.90;;;;;;5500876;26;20779;-80
2024/04/10 03:24:18;;;;;;;17.47;3.70;;;9.80;99.90;;;;;;5500304;26;20239;-79
2024/04/10 03:26:46;;;;;;;10.70;3.80;;;9.80;99.90;;;;;;5487579;26;20318;-80
2024/04/10 03:29:12;;;;;;;12.60;3.67;;;9.70;99.90;;;;;;5499670;26;20288;-79
2024/04/10 03:31:41;;;;;;;11.13;3.37;;;9.70;99.90;;;;;;5498743;26;20246;-77
2024/04/10 03:34:07;;;;;;;8.93;4.03;;;9.70;99.90;;;;;;5485880;26;20298;-79
2024/04/10 03:36:36;;;;;;;10.60;3.60;;;9.70;99.90;;;;;;5480776;26;20341;-79
2024/04/10 03:39:02;;;;;;;12.77;3.37;;;9.70;99.90;;;;;;5495902;26;20625;-79
2024/04/10 03:41:33;;;;;;;10.67;4.40;;;9.70;99.90;;;;;;5492434;26;20284;-79
2024/04/10 03:44:04;;;;;;;8.93;3.20;;;9.70;99.90;;;;;;5493982;26;20254;-80
2024/04/10 03:46:33;;;;;;;12.20;3.53;;;9.70;99.90;;;;;;5490396;26;20242;-79
2024/04/10 03:49:02;;;;;;;11.03;3.27;;;9.70;99.90;;;;;;5493405;26;20646;-79
2024/04/10 03:51:31;;;;;;;10.70;3.60;;;9.70;99.90;;;;;;5480060;26;20694;-79
2024/04/10 03:53:57;;;;;;;8.20;3.47;;;9.60;99.90;;;;;;5493584;26;20250;-79
2024/04/10 03:56:25;;;;;;;12.10;3.57;;;9.60;99.90;;;;;;5504531;26;20241;-80
2024/04/10 03:58:54;;;;;;;14.00;3.70;;;9.60;99.90;;;;;;5497267;25;20242;-79
2024/04/10 04:01:22;;;;;;;9.57;3.53;;;9.70;99.90;;;;;;5494369;26;20756;-79
2024/04/10 04:03:48;;;;;;;18.07;3.43;;;9.70;99.90;;;;;;5492995;26;20234;-78
2024/04/10 04:06:17;;;;;;;9.77;3.63;;;9.70;99.90;;;;;;5494560;26;20290;-80
2024/04/10 04:08:43;;;;;;;13.37;4.13;;;9.60;99.90;;;;;;5491753;26;20242;-79
2024/04/10 04:11:12;;;;;;;10.90;3.50;;;9.60;99.90;;;;;;5498594;26;20270;-79
2024/04/10 04:13:38;;;;;;;8.07;3.40;;;9.70;99.90;;;;;;5517123;26;20241;-80
2024/04/10 04:16:10;;;;;;;12.23;3.43;;;9.70;99.90;;;;;;5493040;25;20331;-79
2024/04/10 04:18:36;;;;;;;11.03;4.40;;;9.70;99.90;;;;;;5495360;26;20234;-80
2024/04/10 04:21:05;;;;;;;12.30;3.70;;;9.70;99.90;;;;;;5482773;26;20299;-78
2024/04/10 04:23:31;;;;;;;11.83;4.03;;;9.80;99.90;;;;;;5497162;26;20611;-79
2024/04/10 04:26:00;;;;;;;12.17;3.40;;;9.90;99.90;;;;;;5496096;26;20242;-79
2024/04/10 04:28:26;;;;;;;12.67;3.63;;;9.80;99.90;;;;;;5500019;26;20239;-79
2024/04/10 04:30:54;;;;;;;11.70;3.30;;;9.90;99.90;;;;;;5497009;25;20284;-79
2024/04/10 04:33:23;;;;;;;15.87;4.43;;;9.90;99.90;;;;;;5498181;26;20238;-79
2024/04/10 04:35:52;;;;;;;13.93;3.30;;;9.90;99.90;;;;;;5501906;25;20292;-80
2024/04/10 04:38:18;;;;;;;12.40;3.60;;;9.90;99.90;;;;;;5494602;26;20311;-79
2024/04/10 04:40:47;;;;;;;13.43;3.70;;;10.00;99.90;;;;;;5493593;26;20261;-79
2024/04/10 04:43:13;;;;;;;11.43;3.37;;;10.00;99.90;;;;;;5487663;26;20277;-79
2024/04/10 04:45:42;;;;;;;9.93;3.60;;;10.00;99.90;;;;;;5493559;26;20238;-79
2024/04/10 04:48:10;;;;;;;10.83;3.40;;;10.00;99.90;;;;;;5477295;26;20288;-79
2024/04/10 04:50:41;;;;;;;11.90;3.50;;;10.00;99.90;;;;;;5479902;26;20319;-78
2024/04/10 04:53:08;;;;;;;15.10;3.90;;;10.10;99.90;;;;;;5480817;26;20558;-79
2024/04/10 04:55:36;;;;;;;10.60;3.30;;;10.00;99.90;;;;;;5494194;26;20246;-78
2024/04/10 04:58:03;;;;;;;11.80;3.83;;;10.00;99.90;;;;;;5477711;26;20242;-79
2024/04/10 05:00:32;;;;;;;10.77;3.50;;;10.10;99.90;;;;;;5496268;26;20246;-79
2024/04/10 05:02:58;;;;;;;11.23;3.97;;;10.10;99.90;;;;;;5508301;26;20277;-79
2024/04/10 05:05:24;;;;;;;9.17;3.03;;;10.10;99.90;;;;;;5499333;26;20289;-80
2024/04/10 05:07:55;;;;;;;15.53;3.87;;;10.10;99.90;;;;;;5490838;26;20369;-79
2024/04/10 05:10:21;;;;;;;11.37;3.60;;;10.10;99.90;;;;;;5491270;26;20716;-80
2024/04/10 05:12:52;;;;;;;12.80;4.07;;;10.10;99.90;;;;;;5482597;26;20340;-77
2024/04/10 05:15:18;;;;;;;9.43;3.70;;;10.00;99.90;;;;;;5506482;26;20613;-79
2024/04/10 05:17:48;;;;;;;14.40;3.27;;;10.10;99.90;;;;;;5501825;26;20288;-79
2024/04/10 05:20:15;;;;;;;10.43;3.90;;;10.10;99.90;;;;;;5483731;26;20243;-80
2024/04/10 05:22:44;;;;;;;10.03;3.17;;;10.00;99.90;;;;;;5504060;26;20242;-79
2024/04/10 05:25:13;;;;;;;8.83;3.03;;;10.10;99.90;;;;;;5489610;26;20289;-79
2024/04/10 05:27:42;;;;;;;11.73;4.30;;;10.10;99.90;;;;;;5482221;26;20800;-79
2024/04/10 05:30:10;;;;;;;13.30;4.07;;;10.10;99.90;;;;;;5495652;26;20242;-79
2024/04/10 05:32:39;;;;;;;14.70;4.00;;;10.00;99.90;;;;;;5487782;26;20298;-80
2024/04/10 05:35:07;;;;;;;11.77;4.03;;;10.10;99.90;;;;;;5502392;26;20239;-80
2024/04/10 05:37:35;;;;;;;9.47;3.73;;;10.10;99.90;;;;;;5484609;26;20255;-79
2024/04/10 05:40:05;;;;;;;13.50;3.83;;;10.10;99.90;;;;;;5497540;25;20285;-79
2024/04/10 05:42:37;;;;;;;11.50;3.77;;;10.10;99.90;;;;;;5496941;26;20250;-79
2024/04/10 05:45:05;;;;;;;9.97;3.50;;;10.10;99.90;;;;;;5491043;26;20395;-79
2024/04/10 05:47:34;;;;;;;9.93;3.73;;;10.10;99.90;;;;;;5484788;26;20247;-80
2024/04/10 05:50:00;;;;;;;12.83;3.93;;;10.10;99.90;;;;;;5470448;26;20231;-79
2024/04/10 05:52:29;;;;;;;11.27;4.40;;;10.10;99.90;;;;;;5485442;26;20234;-79
2024/04/10 05:54:55;;;;;;;12.73;4.00;;;10.10;99.90;;;;;;5480916;26;20281;-80
2024/04/10 05:57:24;;;;;;;12.27;3.90;;;10.10;99.90;;;;;;5486186;26;20239;-80
2024/04/10 05:59:56;;;;;;;10.70;4.07;;;10.10;99.90;;;;;;5490072;26;20246;-79
2024/04/10 06:02:27;;;;;;;10.93;3.97;;;10.20;99.90;;;;;;5483423;26;20243;-79
2024/04/10 06:04:53;;;;;;;14.73;4.23;;;10.20;99.90;;;;;;5504487;26;20276;-78
2024/04/10 06:07:22;;;;;;;9.97;3.93;;;10.20;99.90;;;;;;5498365;26;20253;-78
2024/04/10 06:09:51;;;;;;;11.50;3.70;;;10.30;99.90;;;;;;5524410;25;20241;-79
2024/04/10 06:12:20;;;;;;;11.23;4.10;;;10.30;99.90;;;;;;5490311;26;20273;-79
2024/04/10 06:14:49;;;;;;;10.33;4.23;;;10.30;99.90;;;;;;5495854;26;20299;-79
2024/04/10 06:17:17;;;;;;;11.80;4.53;;;10.30;99.90;;;;;;5517350;26;20246;-79
2024/04/10 06:19:46;;;;;;;12.90;4.77;;;10.40;99.90;;;;;;5489616;26;20234;-79
2024/04/10 06:22:12;;;;;;;11.13;4.80;;;10.70;99.90;;;;;;5488728;26;20729;-79
2024/04/10 06:24:40;;;;;;;13.93;5.47;;;11.50;1.00;;;;;;5509477;25;20287;-79
2024/04/10 06:27:07;;;;;;;12.87;4.60;;;12.60;1.00;;;;;;5498976;25;20243;-79
2024/04/10 06:29:35;;;;;;;12.23;5.13;;;12.90;1.00;;;;;;5501936;26;20410;-80
2024/04/10 06:32:04;;;;;;;13.93;4.40;;;13.00;1.00;;;;;;5477457;26;20247;-79
2024/04/10 06:34:32;;;;;;;11.77;4.40;;;13.10;1.00;;;;;;5484602;26;20243;-79
2024/04/10 06:37:01;;;;;;;13.93;4.47;;;13.20;1.00;;;;;;5488948;26;20298;-79
2024/04/10 06:39:27;;;;;;;11.13;3.90;;;13.50;99.90;;;;;;5495149;26;20259;-79
2024/04/10 06:41:56;;;;;;;13.90;4.93;;;12.90;99.90;;;;;;5499364;26;20635;-80
2024/04/10 06:44:22;;;;;;;12.83;4.33;;;13.00;99.90;;;;;;5470832;26;20244;-79
2024/04/10 06:46:51;;;;;;;11.43;3.90;;;12.60;99.90;;;;;;5495813;26;20242;-79
2024/04/10 06:49:17;;;;;;;13.17;4.77;;;12.20;99.90;;;;;;5496748;26;20724;-79
2024/04/10 06:51:48;;;;;;;15.47;5.90;;;11.90;1.00;;;;;;5494303;26;20238;-80
2024/04/10 06:54:15;;;;;;;13.70;4.97;;;11.70;1.00;;;;;;5484901;26;20230;-79
2024/04/10 06:56:43;;;;;;;11.50;4.37;;;11.70;1.00;;;;;;5496009;26;20347;-80
2024/04/10 06:59:09;;;;;;;9.87;4.60;;;11.60;1.00;;;;;;5475266;26;20638;-79
2024/04/10 07:01:38;;;;;;;16.50;4.97;;;11.60;1.00;;;;;;5499525;26;20276;-79
2024/04/10 07:04:04;;;;;;;10.57;4.93;;;11.70;1.00;;;;;;5481505;26;20246;-79
2024/04/10 07:06:32;;;;;;;13.63;5.53;;;11.60;1.00;;;;;;5486344;26;20796;-79
2024/04/10 07:09:04;;;;;;;10.30;4.63;;;11.80;1.00;;;;;;5500759;26;20237;-79
2024/04/10 07:11:31;;;;;;;13.77;5.17;;;11.90;1.00;;;;;;5473957;26;20412;-79
2024/04/10 07:14:01;;;;;;;13.60;5.23;;;12.10;1.00;;;;;;5490785;26;20840;-78
2024/04/10 07:16:27;;;;;;;18.50;5.40;;;12.00;1.00;;;;;;5482935;26;20246;-78
2024/04/10 07:18:57;;;;;;;10.43;4.97;;;11.90;1.00;;;;;;5491727;26;20276;-79
2024/04/10 07:21:23;;;;;;;13.13;4.83;;;12.00;1.00;;;;;;5494785;26;20342;-79
2024/04/10 07:23:52;;;;;;;14.63;4.87;;;12.20;1.00;;;;;;5500206;26;20245;-79
2024/04/10 07:26:22;;;;;;;12.57;4.77;;;12.40;1.00;;;;;;5488036;26;20292;-79
2024/04/10 07:28:52;;;;;;;11.40;3.57;;;12.30;1.00;;;;;;5475450;26;20628;-79
2024/04/10 07:31:20;;;;;;;11.90;4.23;;;12.50;1.00;;;;;;5484811;26;20582;-79
2024/04/10 07:33:51;;;;;;;7.73;3.83;;;12.50;99.90;;;;;;5478405;26;20235;-79
2024/04/10 07:36:18;;;;;;;9.70;3.60;;;12.50;99.90;;;;;;5477512;26;20756;-79
2024/04/10 07:38:47;;;;;;;9.13;3.90;;;12.40;99.90;;;;;;5498279;26;20343;-79
2024/04/10 07:41:14;;;;;;;11.67;3.37;;;12.50;99.90;;;;;;5494867;25;20288;-79
2024/04/10 07:43:45;;;;;;;9.80;3.90;;;12.50;99.90;;;;;;5495859;26;20269;-79
2024/04/10 07:46:13;;;;;;;9.77;3.77;;;13.00;99.90;;;;;;5484707;26;20298;-80
2024/04/10 07:48:42;;;;;;;6.10;2.57;;;13.30;99.90;;;;;;5488916;26;20579;-77
2024/04/10 07:51:09;;;;;;;7.07;3.30;;;12.90;99.90;;;;;;5492585;26;20289;-80
2024/04/10 07:53:40;;;;;;;7.47;3.20;;;12.80;99.90;;;;;;5508369;26;20238;-79
2024/04/10 07:56:08;;;;;;;8.13;3.80;;;13.00;99.90;;;;;;5508423;26;20848;-80
2024/04/10 07:58:38;;;;;;;6.30;3.60;;;12.90;99.90;;;;;;5491596;26;20323;-79
2024/04/10 08:01:06;;;;;;;9.00;3.80;;;13.10;99.90;;;;;;5501760;26;20251;-80
2024/04/10 08:03:36;;;;;;;10.47;3.30;;;12.60;99.90;;;;;;5487090;26;20246;-79
2024/04/10 08:06:03;;;;;;;5.93;3.40;;;12.40;99.90;;;;;;5480151;26;20246;-78
2024/04/10 08:08:32;;;;;;;8.97;3.93;;;12.50;99.90;;;;;;5494549;26;20634;-79
2024/04/10 08:11:00;;;;;;;7.93;3.20;;;12.50;99.90;;;;;;5494849;26;20249;-78
2024/04/10 08:13:29;;;;;;;8.73;3.73;;;12.50;99.90;;;;;;5494938;26;20694;-79
2024/04/10 08:15:58;;;;;;;10.10;3.60;;;12.60;99.90;;;;;;5491825;26;20230;-78
2024/04/10 08:18:30;;;;;;;7.73;3.50;;;12.60;99.90;;;;;;5494690;26;20740;-79
2024/04/10 08:21:00;;;;;;;8.40;3.23;;;13.10;99.90;;;;;;5504494;26;20245;-79
2024/04/10 08:23:30;;;;;;;12.97;3.50;;;13.10;99.90;;;;;;5492999;25;20254;-80
2024/04/10 08:25:56;;;;;;;11.50;3.40;;;13.20;99.90;;;;;;5494296;26;20246;-80
2024/04/10 08:28:25;;;;;;;10.60;3.60;;;13.40;99.90;;;;;;5489913;26;20641;-79
2024/04/10 08:30:53;;;;;;;5.57;3.20;;;13.30;99.90;;;;;;5497488;26;20242;-80
2024/04/10 08:33:21;;;;;;;8.00;3.47;;;13.00;99.90;;;;;;5496541;26;20755;-79
2024/04/10 08:35:59;;;;;;;9.97;3.10;;;12.70;99.90;;;;;;5500246;26;20276;-80
2024/04/10 08:38:28;;;;;;;7.57;3.37;;;12.50;99.90;;;;;;5491542;26;20261;-80
2024/04/10 08:40:58;;;;;;;10.67;3.60;;;12.20;99.90;;;;;;5490536;26;20585;-78
2024/04/10 08:43:31;;;;;;;9.10;3.47;;;12.20;99.90;;;;;;5483410;26;20251;-79
2024/04/10 08:45:57;;;;;;;9.47;4.40;;;12.10;99.90;;;;;;5483522;26;20246;-79
2024/04/10 08:48:28;;;;;;;8.97;3.70;;;12.00;99.90;;;;;;5499973;26;20284;-79
2024/04/10 08:50:56;;;;;;;9.17;3.60;;;12.10;99.90;;;;;;5498616;26;20238;-80
2024/04/10 08:53:30;;;;;;;9.83;3.70;;;12.20;99.90;;;;;;5487622;26;20281;-80
2024/04/10 08:55:56;;;;;;;12.10;4.07;;;12.30;99.90;;;;;;5483735;26;20273;-80
2024/04/10 08:58:24;;;;;;;8.73;3.53;;;12.30;99.90;;;;;;5497518;26;20247;-80
2024/04/10 09:00:51;;;;;;;13.37;3.90;;;12.40;99.90;;;;;;5490933;26;20238;-80
2024/04/10 09:03:19;;;;;;;8.63;3.57;;;12.30;99.90;;;;;;5480609;26;20277;-78
2024/04/10 09:05:45;;;;;;;10.30;4.43;;;12.30;99.90;;;;;;5496891;26;20281;-79
2024/04/10 09:08:14;;;;;;;7.27;3.30;;;12.50;99.90;;;;;;5484249;26;20614;-79
2024/04/10 09:10:43;;;;;;;9.27;3.70;;;13.20;99.90;;;;;;5483024;26;20243;-79
2024/04/10 09:13:13;;;;;;;9.50;3.23;;;13.10;99.90;;;;;;5508327;26;20272;-79
2024/04/10 09:15:39;;;;;;;6.90;3.10;;;13.60;99.90;;;;;;5498876;25;20330;-79
2024/04/10 09:18:09;;;;;;;7.03;3.07;;;13.90;99.90;;;;;;5509263;26;20748;-80
2024/04/10 09:20:35;;;;;;;10.57;3.27;;;14.10;99.90;;;;;;5494047;26;20246;-78
2024/04/10 09:23:05;;;;;;;6.90;3.23;;;14.10;99.90;;;;;;5487177;26;20284;-78
2024/04/10 09:25:32;;;;;;;5.60;2.70;;;14.10;99.30;;;;;;5497432;26;20710;-79
2024/04/10 09:28:06;;;;;;;7.67;2.83;;;13.80;10.60;;;;;;5498736;25;20269;-79
2024/04/10 09:30:33;;;;;;;5.43;2.60;;;13.60;1.00;;;;;;5496686;26;20694;-79
2024/04/10 09:33:02;;;;;;;7.17;3.80;;;13.40;1.00;;;;;;5495216;26;20623;-79
2024/04/10 09:35:29;;;;;;;6.57;2.50;;;13.10;1.00;;;;;;5487345;26;20705;-79
2024/04/10 09:37:59;;;;;;;7.77;2.33;;;13.30;1.00;;;;;;5482088;26;20696;-79
2024/04/10 09:40:26;;;;;;;6.87;3.03;;;13.30;1.00;;;;;;5507478;26;20284;-78
2024/04/10 09:43:03;;;;;;;8.93;2.93;;;13.30;1.00;;;;;;5500173;26;20338;-79
2024/04/10 09:45:35;;;;;;;4.80;2.50;;;13.20;1.00;;;;;;5512639;25;20223;-80
2024/04/10 09:48:08;;;;;;;7.43;2.83;;;13.60;1.00;;;;;;5493966;26;20701;-80
2024/04/10 09:50:36;;;;;;;6.33;2.23;;;14.80;37.40;;;;;;5498971;26;20243;-79
2024/04/10 09:53:06;;;;;;;9.67;2.53;;;15.30;1.00;;;;;;5481477;26;20274;-79
2024/04/10 09:55:33;;;;;;;7.17;2.43;;;14.70;1.00;;;;;;5491455;26;20235;-80
2024/04/10 09:58:04;;;;;;;7.23;2.63;;;14.40;1.00;;;;;;5498519;26;20242;-79
2024/04/10 10:00:35;;;;;;;5.80;2.25;;;14.70;1.00;;;;;;5498925;26;20246;-79
2024/04/10 10:03:08;;;;;;;10.40;3.27;;;15.30;1.00;;;;;;5499503;26;20238;-78
2024/04/10 10:05:34;;;;;;;5.68;2.53;;;14.80;1.00;;;;;;5498593;26;20273;-78
2024/04/10 10:08:07;;;;;;;5.32;2.30;;;14.80;1.00;;;;;;5480901;26;20299;-80
2024/04/10 10:10:49;;;;;;;7.53;2.63;;;15.20;1.00;;;;;;5476196;26;20292;-79
2024/04/10 10:13:28;;;;;;;6.10;2.80;;;15.00;1.00;;;;;;5495425;26;20748;-77
2024/04/10 10:16:04;;;;;;;5.57;2.45;;;14.90;1.00;;;;;;5497105;26;20616;-79
2024/04/10 10:18:33;;;;;;;4.85;2.20;;;15.40;1.00;;;;;;5483397;26;20246;-80
2024/04/10 10:21:03;;;;;;;7.47;2.10;;;15.80;1.00;;;;;;5497452;26;20235;-80
2024/04/10 10:23:32;;;;;;;9.55;3.30;;;15.70;1.00;;;;;;5475991;26;20283;-79
2024/04/10 10:25:58;;;;;;;7.57;2.50;;;15.30;1.00;;;;;;5491146;26;20288;-79
2024/04/10 10:28:29;;;;;;;4.43;1.80;;;14.90;1.00;;;;;;5490722;26;20238;-80
2024/04/10 10:31:08;;;;;;;4.97;2.05;;;14.50;1.00;;;;;;5487640;26;20356;-79
2024/04/10 10:33:38;;;;;;;6.88;2.50;;;14.70;1.00;;;;;;5496720;26;20237;-79
2024/04/10 10:36:04;;;;;;;4.63;2.00;;;14.70;1.00;;;;;;5497614;26;20654;-79
2024/04/10 10:38:33;;;;;;;6.05;2.33;;;15.30;1.00;;;;;;5491518;26;20293;-80
2024/04/10 10:41:06;;;;;;;8.32;2.47;;;15.70;1.00;;;;;;5500149;26;20242;-79
2024/04/10 10:43:35;;;;;;;7.95;2.75;;;16.20;1.00;;;;;;5500874;26;20303;-80
2024/04/10 10:46:01;;;;;;;7.35;2.72;;;16.40;1.00;;;;;;5492026;25;20255;-79
2024/04/10 10:48:33;;;;;;;5.07;2.33;;;15.80;1.00;;;;;;5498837;26;20246;-79
2024/04/10 10:50:59;;;;;;;3.92;1.90;;;16.10;1.00;;;;;;5474129;26;20242;-79
2024/04/10 10:53:29;;;;;;;6.13;2.08;;;16.60;1.00;;;;;;5489309;26;20814;-79
2024/04/10 10:55:56;;;;;;;9.65;2.30;;;16.50;1.00;;;;;;5499924;26;20605;-80
2024/04/10 10:58:26;;;;;;;4.85;2.10;;;16.50;1.00;;;;;;5488534;25;20665;-80
2024/04/10 11:00:53;;;;;;;6.72;2.58;;;16.00;1.00;;;;;;5494187;26;20462;-79
2024/04/10 11:03:22;;;;;;;6.93;2.55;;;15.90;1.00;;;;;;5502457;26;20243;-80
2024/04/10 11:05:50;;;;;;;8.13;2.30;;;15.60;1.00;;;;;;5498065;26;20245;-80
2024/04/10 11:08:28;;;;;;;7.05;2.67;;;16.10;1.00;;;;;;5507772;26;20231;-80
2024/04/10 11:10:54;;;;;;;6.25;2.25;;;16.80;1.00;;;;;;5485930;26;20264;-79
2024/04/10 11:13:23;;;;;;;5.03;2.40;;;17.70;1.00;;;;;;5495367;26;20234;-79
2024/04/10 11:15:49;;;;;;;5.47;2.60;;;17.50;1.00;;;;;;5496898;26;20234;-79
2024/04/10 11:18:18;;;;;;;6.43;2.50;;;18.20;1.00;;;;;;5498754;26;20246;-79
2024/04/10 11:20:44;;;;;;;7.43;2.05;;;18.20;1.00;;;;;;5491412;26;20246;-81
2024/04/10 11:23:16;;;;;;;6.78;2.97;;;18.00;99.90;;;;;;5491738;26;20255;-79
2024/04/10 11:25:42;;;;;;;9.25;2.63;;;18.20;99.90;;;;;;5501930;26;20313;-81
2024/04/10 11:28:12;;;;;;;4.95;2.10;;;18.20;99.90;;;;;;5489636;26;20251;-81
2024/04/10 11:30:38;;;;;;;5.78;2.80;;;18.80;99.90;;;;;;5502644;26;20306;-80
2024/04/10 11:33:08;;;;;;;5.43;2.40;;;19.00;99.90;;;;;;5495256;26;20312;-80
2024/04/10 11:35:37;;;;;;;6.43;2.60;;;17.80;99.90;;;;;;5501456;26;20279;-80
2024/04/10 11:38:06;;;;;;;4.30;2.35;;;16.90;99.90;;;;;;5492659;26;20327;-81
2024/04/10 11:40:34;;;;;;;3.92;2.28;;;16.50;99.90;;;;;;5497242;26;20245;-80
2024/04/10 11:43:03;;;;;;;5.18;2.60;;;16.20;99.90;;;;;;5493712;26;20322;-78
2024/04/10 11:45:29;;;;;;;7.63;2.75;;;15.70;99.90;;;;;;5472753;26;20239;-80
2024/04/10 11:47:59;;;;;;;5.43;2.38;;;15.90;99.90;;;;;;5497199;26;20231;-80
2024/04/10 11:50:25;;;;;;;5.15;2.20;;;15.70;99.90;;;;;;5483007;26;20289;-80
2024/04/10 11:52:54;;;;;;;3.90;2.17;;;15.90;99.90;;;;;;5495487;25;20301;-80
2024/04/10 11:55:20;;;;;;;3.72;1.77;;;15.40;99.90;;;;;;5490740;26;20273;-81
2024/04/10 11:57:51;;;;;;;6.25;1.80;;;15.30;99.90;;;;;;5482529;26;20729;-81
2024/04/10 12:00:17;;;;;;;7.68;1.85;;;15.30;99.90;;;;;;5474144;26;20274;-80
2024/04/10 12:02:45;;;;;;;4.55;1.58;;;15.30;99.90;;;;;;5492366;26;20238;-80
2024/04/10 12:05:12;;;;;;;5.47;1.98;;;15.30;99.90;;;;;;5501388;26;20276;-80
2024/04/10 12:07:41;;;;;;;5.68;2.05;;;15.20;99.90;;;;;;5475885;26;20251;-81
2024/04/10 12:10:08;;;;;;;5.78;2.03;;;15.10;99.90;;;;;;5480830;26;20374;-80
2024/04/10 12:12:37;;;;;;;9.93;2.63;;;15.20;99.90;;;;;;5490739;26;20272;-80
2024/04/10 12:15:06;;;;;;;8.18;2.40;;;15.30;99.90;;;;;;5493966;26;20242;-79
2024/04/10 12:17:35;;;;;;;5.68;2.00;;;15.30;99.90;;;;;;5489927;26;20277;-79
2024/04/10 12:20:03;;;;;;;7.38;2.70;;;15.30;99.90;;;;;;5493609;26;20285;-79
2024/04/10 12:22:31;;;;;;;6.75;2.35;;;14.90;99.90;;;;;;5479521;26;20724;-80
2024/04/10 12:24:57;;;;;;;6.53;2.53;;;15.30;99.90;;;;;;5494112;26;20285;-79
2024/04/10 12:27:27;;;;;;;6.05;2.13;;;15.10;99.90;;;;;;5494612;26;20940;-79
2024/04/10 12:29:53;;;;;;;4.78;2.42;;;15.00;99.90;;;;;;5491638;26;20334;-80
2024/04/10 12:32:25;;;;;;;4.90;2.17;;;15.10;99.90;;;;;;5494510;26;20234;-79
2024/04/10 12:34:52;;;;;;;8.63;2.45;;;15.00;99.90;;;;;;5481501;26;20248;-79
2024/04/10 12:40:06;;;;;;;4.57;2.30;;;15.00;99.90;;;;;;5496527;26;20269;-78
2024/04/10 12:42:34;;;;;;;9.18;2.88;;;14.90;99.90;;;;;;5468038;26;20301;-80
2024/04/10 12:45:03;;;;;;;6.25;2.40;;;14.90;99.90;;;;;;5486471;26;20623;-80
2024/04/10 12:47:32;;;;;;;5.20;2.35;;;14.60;99.90;;;;;;5482378;26;20234;-80
2024/04/10 12:50:00;;;;;;;6.13;2.17;;;14.70;99.90;;;;;;5489887;26;20239;-81
2024/04/10 12:52:26;;;;;;;5.28;2.50;;;14.60;99.90;;;;;;5492477;26;20242;-81
2024/04/10 12:54:55;;;;;;;7.25;2.00;;;14.80;99.90;;;;;;5488784;26;20238;-79
2024/04/10 12:57:22;;;;;;;3.60;1.85;;;15.00;1.00;;;;;;5482689;26;20774;-80